createdAt,value
2023-06-09T00:00:19.161Z,7.32
2023-06-09T00:02:48.931Z,6.35
2023-06-09T00:05:16.454Z,6.22
2023-06-09T00:07:43.704Z,7.38
2023-06-09T00:10:11.024Z,6.78
2023-06-09T00:12:38.184Z,6.45
2023-06-09T00:15:05.437Z,6.72
2023-06-09T00:17:32.705Z,6.15
2023-06-09T00:20:04.480Z,5.75
2023-06-09T00:22:35.030Z,6.15
2023-06-09T00:25:02.066Z,6.95
2023-06-09T00:27:30.608Z,6.28
2023-06-09T00:29:58.416Z,7.13
2023-06-09T00:32:25.822Z,6.50
2023-06-09T00:34:52.842Z,9.75
2023-06-09T00:37:19.498Z,7.82
2023-06-09T00:39:46.209Z,8.65
2023-06-09T00:42:12.876Z,8.55
2023-06-09T00:44:40.133Z,7.38
2023-06-09T00:47:08.565Z,7.45
2023-06-09T00:52:03.173Z,5.85
2023-06-09T00:54:30.773Z,8.15
2023-06-09T00:56:57.896Z,7.80
2023-06-09T00:59:26.998Z,7.88
2023-06-09T01:01:53.661Z,6.75
2023-06-09T01:04:21.035Z,6.78
2023-06-09T01:07:09.955Z,8.05
2023-06-09T01:09:42.756Z,8.35
2023-06-09T01:12:27.067Z,7.72
2023-06-09T01:15:26.886Z,7.20
2023-06-09T01:17:58.013Z,8.77
2023-06-09T01:20:40.170Z,7.32
2023-06-09T01:23:16.887Z,7.45
2023-06-09T01:25:47.066Z,6.70
2023-06-09T01:28:21.273Z,7.45
2023-06-09T01:30:50.345Z,8.15
2023-06-09T01:33:22.048Z,9.35
2023-06-09T01:35:50.960Z,8.38
2023-06-09T01:38:21.864Z,7.40
2023-06-09T01:40:49.101Z,6.93
2023-06-09T01:43:15.870Z,5.95
2023-06-09T01:45:42.663Z,5.53
2023-06-09T01:48:21.186Z,5.78
2023-06-09T01:51:04.396Z,7.68
2023-06-09T01:53:37.610Z,7.70
2023-06-09T01:56:21.788Z,6.40
2023-06-09T01:58:54.828Z,5.65
2023-06-09T02:01:24.536Z,5.70
2023-06-09T02:03:54.584Z,6.35
2023-06-09T02:06:22.482Z,6.63
2023-06-09T02:08:49.534Z,5.72
2023-06-09T02:11:16.218Z,4.32
2023-06-09T02:13:42.916Z,6.38
2023-06-09T02:16:09.614Z,6.32
2023-06-09T02:18:38.112Z,5.78
2023-06-09T02:23:36.288Z,4.53
2023-06-09T02:26:04.483Z,5.82
2023-06-09T02:28:31.189Z,5.90
2023-06-09T02:30:57.799Z,6.20
2023-06-09T02:33:25.587Z,6.93
2023-06-09T02:35:53.406Z,6.38
2023-06-09T02:38:20.225Z,7.15
2023-06-09T02:40:47.289Z,7.72
2023-06-09T02:43:14.266Z,6.18
2023-06-09T02:45:41.725Z,5.20
2023-06-09T02:48:08.523Z,5.72
2023-06-09T02:50:37.300Z,9.27
2023-06-09T02:53:04.220Z,8.10
2023-06-09T02:55:33.598Z,7.28
2023-06-09T02:58:00.664Z,7.97
2023-06-09T03:00:27.408Z,6.93
2023-06-09T03:02:54.302Z,6.97
2023-06-09T03:05:22.382Z,7.78
2023-06-09T03:07:49.857Z,6.03
2023-06-09T03:10:16.608Z,6.55
2023-06-09T03:12:43.298Z,6.32
2023-06-09T03:15:10.638Z,6.10
2023-06-09T03:17:37.715Z,7.70
2023-06-09T03:20:07.379Z,5.38
2023-06-09T03:22:34.015Z,5.80
2023-06-09T03:25:00.711Z,5.72
2023-06-09T03:27:27.425Z,4.88
2023-06-09T03:29:54.066Z,4.72
2023-06-09T03:32:20.815Z,4.45
2023-06-09T03:34:47.619Z,7.60
2023-06-09T03:37:15.803Z,7.00
2023-06-09T03:39:42.787Z,5.35
2023-06-09T03:42:09.793Z,5.53
2023-06-09T03:44:38.476Z,5.55
2023-06-09T03:47:06.812Z,6.70
2023-06-09T03:49:33.512Z,6.57
2023-06-09T03:52:00.157Z,6.75
2023-06-09T03:54:28.017Z,6.38
2023-06-09T03:56:54.774Z,5.47
2023-06-09T03:59:21.413Z,5.60
2023-06-09T04:01:50.178Z,5.53
2023-06-09T04:04:17.015Z,6.40
2023-06-09T04:06:47.929Z,5.50
2023-06-09T04:09:16.650Z,6.18
2023-06-09T04:11:43.666Z,5.95
2023-06-09T04:14:10.487Z,6.35
2023-06-09T04:16:38.885Z,5.60
2023-06-09T04:21:34.028Z,6.47
2023-06-09T04:26:28.098Z,5.43
2023-06-09T04:28:55.879Z,5.90
2023-06-09T04:31:25.508Z,5.60
2023-06-09T04:33:53.229Z,6.35
2023-06-09T04:36:22.064Z,6.78
2023-06-09T04:38:49.369Z,6.05
2023-06-09T04:41:18.776Z,5.65
2023-06-09T04:43:45.834Z,5.75
2023-06-09T04:46:14.100Z,4.65
2023-06-09T04:48:42.694Z,4.38
2023-06-09T04:51:11.741Z,4.45
2023-06-09T04:53:41.996Z,5.15
2023-06-09T04:56:10.437Z,5.28
2023-06-09T04:58:38.552Z,5.13
2023-06-09T05:01:05.260Z,5.10
2023-06-09T05:03:32.006Z,4.63
2023-06-09T05:05:58.738Z,4.20
2023-06-09T05:08:25.635Z,4.43
2023-06-09T05:10:53.942Z,6.75
2023-06-09T05:13:21.275Z,4.35
2023-06-09T05:15:48.565Z,4.30
2023-06-09T05:18:18.978Z,5.90
2023-06-09T05:20:45.993Z,5.43
2023-06-09T05:23:13.457Z,5.75
2023-06-09T05:25:40.358Z,5.63
2023-06-09T05:28:07.703Z,5.00
2023-06-09T05:30:34.620Z,5.38
2023-06-09T05:33:02.845Z,5.50
2023-06-09T05:35:29.741Z,6.15
2023-06-09T05:37:56.536Z,7.35
2023-06-09T05:40:23.246Z,5.88
2023-06-09T05:42:51.395Z,5.75
2023-06-09T05:45:18.565Z,6.07
2023-06-09T05:47:47.475Z,7.90
2023-06-09T05:50:14.616Z,6.25
2023-06-09T05:52:41.696Z,6.57
2023-06-09T05:55:12.249Z,8.55
2023-06-09T05:57:41.874Z,7.53
2023-06-09T06:00:11.014Z,7.10
2023-06-09T06:02:42.353Z,5.13
2023-06-09T06:05:10.959Z,6.13
2023-06-09T06:07:38.962Z,4.85
2023-06-09T06:10:07.421Z,4.20
2023-06-09T06:12:34.532Z,3.97
2023-06-09T06:15:01.712Z,4.95
2023-06-09T06:17:28.439Z,6.03
2023-06-09T06:19:55.661Z,5.05
2023-06-09T06:22:22.285Z,4.88
2023-06-09T06:24:48.931Z,5.80
2023-06-09T06:27:15.782Z,4.22
2023-06-09T06:29:42.541Z,4.32
2023-06-09T06:32:09.704Z,4.13
2023-06-09T06:34:36.495Z,3.65
2023-06-09T06:37:03.251Z,3.92
2023-06-09T06:39:29.906Z,5.05
2023-06-09T06:41:56.684Z,3.78
2023-06-09T06:44:23.448Z,3.65
2023-06-09T06:46:50.095Z,5.38
2023-06-09T06:49:17.064Z,4.65
2023-06-09T06:51:43.656Z,4.38
2023-06-09T06:54:10.486Z,5.05
2023-06-09T06:56:39.551Z,3.72
2023-06-09T06:59:06.270Z,4.35
2023-06-09T07:01:33.801Z,3.95
2023-06-09T07:06:29.037Z,3.85
2023-06-09T07:08:56.907Z,3.88
2023-06-09T07:11:23.562Z,4.63
2023-06-09T07:13:52.651Z,4.72
2023-06-09T07:16:19.782Z,4.20
2023-06-09T07:18:46.618Z,4.68
2023-06-09T07:21:13.493Z,4.65
2023-06-09T07:23:40.892Z,3.42
2023-06-09T07:26:09.676Z,4.00
2023-06-09T07:28:36.381Z,5.78
2023-06-09T07:31:03.825Z,5.00
2023-06-09T07:33:33.390Z,5.03
2023-06-09T07:36:00.543Z,4.60
2023-06-09T07:38:28.200Z,5.32
2023-06-09T07:40:55.787Z,4.47
2023-06-09T07:45:50.079Z,5.00
2023-06-09T07:48:17.111Z,4.93
2023-06-09T07:50:59.951Z,5.68
2023-06-09T07:53:27.928Z,4.10
2023-06-09T07:55:54.562Z,5.32
2023-06-09T07:58:21.962Z,6.00
2023-06-09T08:00:48.816Z,5.35
2023-06-09T08:03:15.796Z,5.15
2023-06-09T08:05:43.521Z,5.25
2023-06-09T08:08:10.192Z,5.35
2023-06-09T08:10:36.925Z,4.93
2023-06-09T08:13:03.648Z,4.45
2023-06-09T08:15:30.515Z,4.55
2023-06-09T08:17:57.227Z,3.95
2023-06-09T08:20:23.955Z,3.47
2023-06-09T08:22:50.779Z,4.80
2023-06-09T08:25:17.881Z,4.65
2023-06-09T08:27:44.579Z,3.80
2023-06-09T08:30:11.805Z,4.05
2023-06-09T08:32:41.657Z,4.85
2023-06-09T08:35:09.865Z,5.28
2023-06-09T08:37:39.726Z,3.50
2023-06-09T08:40:10.634Z,3.90
2023-06-09T08:42:40.964Z,5.78
2023-06-09T08:45:09.969Z,4.43
2023-06-09T08:47:39.625Z,4.07
2023-06-09T08:50:09.002Z,4.10
2023-06-09T08:52:36.271Z,3.92
2023-06-09T08:55:05.038Z,4.03
2023-06-09T08:57:32.266Z,4.30
2023-06-09T08:59:59.216Z,5.13
2023-06-09T09:02:26.562Z,3.88
2023-06-09T09:04:53.839Z,4.38
2023-06-09T09:07:20.649Z,4.40
2023-06-09T09:09:47.296Z,4.55
2023-06-09T09:12:14.482Z,4.97
2023-06-09T09:14:43.114Z,4.78
2023-06-09T09:17:15.292Z,4.57
2023-06-09T09:19:47.133Z,3.83
2023-06-09T09:22:13.935Z,5.00
2023-06-09T09:24:47.545Z,5.20
2023-06-09T09:27:19.122Z,5.32
2023-06-09T09:29:47.418Z,5.47
2023-06-09T09:32:14.634Z,5.15
2023-06-09T09:34:42.722Z,5.47
2023-06-09T09:37:15.124Z,4.80
2023-06-09T09:39:54.872Z,4.47
2023-06-09T09:42:22.400Z,4.82
2023-06-09T09:44:52.959Z,5.63
2023-06-09T09:47:21.353Z,4.85
2023-06-09T09:49:53.934Z,5.50
2023-06-09T09:52:28.207Z,4.05
2023-06-09T09:54:56.784Z,4.00
2023-06-09T09:57:26.163Z,4.80
2023-06-09T09:59:53.792Z,3.83
2023-06-09T10:04:52.346Z,4.22
2023-06-09T10:07:25.322Z,3.60
2023-06-09T10:09:55.238Z,3.58
2023-06-09T10:12:22.889Z,3.65
2023-06-09T10:17:21.408Z,4.38
2023-06-09T10:19:51.965Z,3.92
2023-06-09T10:22:19.951Z,3.80
2023-06-09T10:24:47.866Z,4.45
2023-06-09T10:27:15.392Z,4.25
2023-06-09T10:29:42.837Z,4.15
2023-06-09T10:32:13.813Z,3.72
2023-06-09T10:34:48.290Z,3.78
2023-06-09T10:37:30.743Z,3.90
2023-06-09T10:40:06.691Z,3.95
2023-06-09T10:42:42.318Z,3.95
2023-06-09T10:45:21.105Z,4.00
2023-06-09T10:47:51.453Z,3.22
2023-06-09T10:50:31.477Z,3.05
2023-06-09T10:52:59.279Z,4.65
2023-06-09T10:55:28.540Z,4.30
2023-06-09T10:57:56.653Z,3.85
2023-06-09T11:00:24.270Z,3.90
2023-06-09T11:03:16.397Z,3.25
2023-06-09T11:05:45.035Z,4.28
2023-06-09T11:08:11.628Z,4.53
2023-06-09T11:10:40.940Z,4.00
2023-06-09T11:13:41.129Z,3.90
2023-06-09T11:16:10.756Z,3.97
2023-06-09T11:18:40.780Z,3.50
2023-06-09T11:21:16.240Z,4.18
2023-06-09T11:24:03.058Z,3.78
2023-06-09T11:26:31.409Z,4.05
2023-06-09T11:28:58.437Z,3.10
2023-06-09T11:31:25.406Z,3.53
2023-06-09T11:33:54.986Z,4.32
2023-06-09T11:36:24.534Z,3.63
2023-06-09T11:38:51.763Z,4.32
2023-06-09T11:41:23.253Z,3.58
2023-06-09T11:43:59.562Z,4.20
2023-06-09T11:46:26.670Z,3.85
2023-06-09T11:49:09.760Z,3.22
2023-06-09T11:51:57.193Z,3.92
2023-06-09T11:54:24.898Z,4.43
2023-06-09T11:56:53.312Z,4.60
2023-06-09T11:59:27.505Z,4.25
2023-06-09T12:01:57.532Z,4.35
2023-06-09T12:04:24.230Z,5.65
2023-06-09T12:06:51.163Z,4.57
2023-06-09T12:09:26.562Z,4.38
2023-06-09T12:11:54.771Z,4.10
2023-06-09T12:14:22.566Z,4.20
2023-06-09T12:16:51.118Z,5.25
2023-06-09T12:19:20.640Z,4.45
2023-06-09T12:21:48.932Z,4.13
2023-06-09T12:24:16.770Z,4.93
2023-06-09T12:26:51.559Z,3.92
2023-06-09T12:29:25.834Z,4.80
2023-06-09T12:31:53.376Z,4.22
2023-06-09T12:34:32.401Z,3.35
2023-06-09T12:36:59.781Z,4.18
2023-06-09T12:39:31.852Z,4.57
2023-06-09T12:41:58.591Z,3.17
2023-06-09T12:44:26.764Z,4.15
2023-06-09T12:46:57.487Z,3.70
2023-06-09T12:49:33.767Z,3.17
2023-06-09T12:52:01.359Z,3.30
2023-06-09T12:56:57.107Z,3.85
2023-06-09T12:59:24.817Z,3.65
2023-06-09T13:01:54.054Z,3.63
2023-06-09T13:04:21.615Z,3.20
2023-06-09T13:09:15.304Z,3.47
2023-06-09T13:11:41.942Z,4.72
2023-06-09T13:14:10.026Z,4.38
2023-06-09T13:16:36.807Z,5.03
2023-06-09T13:19:03.650Z,4.65
2023-06-09T13:21:43.069Z,3.08
2023-06-09T13:24:11.022Z,3.83
2023-06-09T13:26:39.822Z,3.65
2023-06-09T13:29:06.793Z,3.35
2023-06-09T13:31:33.827Z,3.08
2023-06-09T13:34:00.663Z,3.55
2023-06-09T13:36:27.497Z,3.90
2023-06-09T13:38:54.211Z,3.28
2023-06-09T13:41:21.753Z,3.22
2023-06-09T13:43:49.070Z,3.03
2023-06-09T13:46:17.145Z,3.20
2023-06-09T13:48:44.142Z,3.08
2023-06-09T13:51:11.036Z,3.85
2023-06-09T13:53:39.791Z,3.53
2023-06-09T13:56:06.918Z,3.22
2023-06-09T13:58:36.918Z,3.45
2023-06-09T14:01:04.386Z,3.70
2023-06-09T14:03:31.115Z,3.38
2023-06-09T14:05:58.264Z,3.85
2023-06-09T14:08:25.215Z,3.55
2023-06-09T14:10:51.844Z,3.13
2023-06-09T14:13:18.587Z,2.92
2023-06-09T14:15:45.271Z,3.83
2023-06-09T14:18:12.170Z,2.97
2023-06-09T14:20:40.991Z,3.88
2023-06-09T14:23:10.177Z,2.80
2023-06-09T14:25:37.061Z,2.63
2023-06-09T14:28:04.490Z,3.45
2023-06-09T14:30:31.773Z,3.25
2023-06-09T14:32:59.176Z,2.72
2023-06-09T14:35:27.829Z,2.63
2023-06-09T14:38:02.950Z,2.22
2023-06-09T14:40:31.197Z,2.65
2023-06-09T14:42:58.469Z,2.70
2023-06-09T14:45:26.053Z,2.58
2023-06-09T14:47:55.031Z,2.28
2023-06-09T14:50:34.223Z,3.30
2023-06-09T14:53:03.386Z,2.63
2023-06-09T14:55:33.423Z,2.67
2023-06-09T14:58:02.477Z,2.05
2023-06-09T15:00:30.838Z,3.00
2023-06-09T15:02:58.744Z,2.33
2023-06-09T15:05:28.610Z,1.90
2023-06-09T15:07:57.505Z,2.90
2023-06-09T15:10:29.044Z,1.88
2023-06-09T15:12:56.050Z,1.42
2023-06-09T15:15:27.136Z,2.83
2023-06-09T15:17:54.039Z,1.80
2023-06-09T15:20:22.557Z,2.08
2023-06-09T15:22:49.313Z,2.42
2023-06-09T15:25:15.988Z,1.77
2023-06-09T15:27:42.729Z,2.17
2023-06-09T15:30:10.301Z,1.45
2023-06-09T15:32:37.111Z,2.15
2023-06-09T15:35:04.610Z,1.33
2023-06-09T15:37:31.374Z,1.55
2023-06-09T15:39:58.030Z,2.72
2023-06-09T15:42:25.799Z,2.53
2023-06-09T15:44:53.277Z,2.40
2023-06-09T15:47:20.023Z,1.98
2023-06-09T15:49:46.835Z,2.85
2023-06-09T15:52:13.716Z,1.85
2023-06-09T15:54:41.333Z,1.92
2023-06-09T15:57:08.636Z,1.63
2023-06-09T15:59:35.715Z,2.33
2023-06-09T16:02:10.401Z,2.20
2023-06-09T16:04:40.790Z,2.10
2023-06-09T16:07:09.209Z,1.75
2023-06-09T16:09:36.350Z,2.03
2023-06-09T16:12:03.230Z,1.40
2023-06-09T16:14:29.889Z,1.80
2023-06-09T16:16:56.565Z,2.28
2023-06-09T16:19:23.353Z,1.77
2023-06-09T16:21:50.029Z,1.27
2023-06-09T16:24:16.845Z,2.03
2023-06-09T16:26:45.171Z,2.03
2023-06-09T16:29:12.006Z,1.98
2023-06-09T16:31:40.966Z,1.50
2023-06-09T16:34:09.731Z,1.70
2023-06-09T16:36:38.187Z,1.45
2023-06-09T16:39:06.829Z,1.77
2023-06-09T16:41:33.726Z,1.77
2023-06-09T16:44:02.536Z,1.90
2023-06-09T16:46:29.430Z,1.67
2023-06-09T16:48:56.362Z,1.42
2023-06-09T16:51:23.036Z,1.83
2023-06-09T16:53:49.881Z,1.33
2023-06-09T16:56:16.559Z,1.75
2023-06-09T16:58:43.262Z,1.48
2023-06-09T17:01:09.947Z,1.88
2023-06-09T17:03:36.758Z,1.92
2023-06-09T17:06:03.621Z,1.50
2023-06-09T17:08:30.414Z,2.10
2023-06-09T17:10:57.311Z,1.95
2023-06-09T17:13:24.287Z,1.35
2023-06-09T17:15:51.201Z,2.15
2023-06-09T17:18:18.011Z,2.40
2023-06-09T17:20:44.777Z,2.17
2023-06-09T17:23:11.414Z,1.77
2023-06-09T17:25:40.269Z,2.13
2023-06-09T17:28:07.012Z,2.22
2023-06-09T17:30:35.071Z,2.03
2023-06-09T17:33:01.909Z,1.88
2023-06-09T17:35:28.781Z,1.40
2023-06-09T17:37:55.471Z,1.58
2023-06-09T17:40:22.229Z,1.77
2023-06-09T17:42:48.966Z,2.75
2023-06-09T17:45:15.703Z,5.43
2023-06-09T17:47:42.423Z,3.33
2023-06-09T17:50:10.258Z,3.55
2023-06-09T17:55:04.562Z,2.13
2023-06-09T17:57:33.113Z,2.10
2023-06-09T18:00:00.923Z,3.03
2023-06-09T18:02:27.848Z,2.58
2023-06-09T18:04:54.727Z,1.67
2023-06-09T18:07:21.394Z,2.40
2023-06-09T18:09:48.059Z,1.60
2023-06-09T18:12:15.071Z,1.95
2023-06-09T18:14:41.982Z,1.80
2023-06-09T18:17:12.697Z,1.95
2023-06-09T18:19:41.401Z,1.75
2023-06-09T18:22:08.749Z,1.55
2023-06-09T18:24:36.390Z,2.22
2023-06-09T18:27:04.920Z,2.67
2023-06-09T18:29:31.850Z,2.13
2023-06-09T18:32:01.402Z,2.60
2023-06-09T18:34:28.019Z,2.58
2023-06-09T18:36:54.781Z,1.90
2023-06-09T18:39:21.480Z,2.03
2023-06-09T18:41:48.275Z,1.92
2023-06-09T18:44:17.777Z,1.83
2023-06-09T18:46:45.344Z,2.03
2023-06-09T18:49:12.145Z,1.70
2023-06-09T18:51:41.901Z,2.10
2023-06-09T18:54:11.645Z,1.90
2023-06-09T18:56:41.031Z,2.00
2023-06-09T18:59:08.561Z,2.25
2023-06-09T19:01:35.225Z,2.60
2023-06-09T19:04:02.029Z,2.47
2023-06-09T19:06:28.773Z,3.05
2023-06-09T19:08:55.343Z,3.20
2023-06-09T19:11:22.177Z,2.58
2023-06-09T19:13:51.587Z,1.85
2023-06-09T19:16:19.666Z,2.35
2023-06-09T19:18:46.341Z,2.88
2023-06-09T19:21:13.273Z,2.45
2023-06-09T19:23:42.489Z,3.30
2023-06-09T19:26:09.941Z,2.20
2023-06-09T19:28:36.633Z,1.83
2023-06-09T19:31:03.467Z,2.88
2023-06-09T19:33:30.203Z,2.78
2023-06-09T19:35:57.329Z,2.67
2023-06-09T19:38:24.021Z,3.20
2023-06-09T19:40:50.790Z,1.58
2023-06-09T19:43:17.508Z,1.95
2023-06-09T19:45:44.369Z,2.42
2023-06-09T19:48:11.615Z,3.00
2023-06-09T19:50:39.296Z,2.08
2023-06-09T19:53:06.572Z,2.25
2023-06-09T19:55:33.544Z,2.20
2023-06-09T19:58:00.341Z,2.20
2023-06-09T20:00:27.114Z,2.05
2023-06-09T20:02:53.949Z,1.60
2023-06-09T20:05:20.806Z,2.60
2023-06-09T20:07:47.509Z,2.25
2023-06-09T20:10:14.193Z,1.95
2023-06-09T20:12:41.176Z,2.15
2023-06-09T20:15:11.741Z,2.55
2023-06-09T20:17:40.918Z,2.83
2023-06-09T20:20:09.786Z,3.13
2023-06-09T20:22:37.249Z,2.88
2023-06-09T20:25:04.976Z,2.20
2023-06-09T20:27:31.720Z,2.78
2023-06-09T20:29:58.480Z,2.78
2023-06-09T20:32:25.341Z,2.40
2023-06-09T20:34:52.292Z,2.80
2023-06-09T20:37:19.173Z,2.03
2023-06-09T20:39:45.901Z,2.25
2023-06-09T20:42:12.587Z,2.20
2023-06-09T20:44:42.367Z,2.50
2023-06-09T20:47:10.092Z,2.08
2023-06-09T20:49:36.788Z,2.00
2023-06-09T20:52:03.726Z,2.80
2023-06-09T20:54:30.468Z,2.47
2023-06-09T20:56:57.165Z,2.33
2023-06-09T20:59:24.005Z,2.13
2023-06-09T21:01:51.091Z,1.77
2023-06-09T21:04:18.037Z,1.92
2023-06-09T21:06:44.741Z,2.63
2023-06-09T21:09:11.885Z,1.92
2023-06-09T21:11:41.117Z,2.75
2023-06-09T21:14:09.837Z,1.90
2023-06-09T21:16:36.716Z,2.50
2023-06-09T21:19:03.599Z,2.50
2023-06-09T21:21:30.198Z,2.83
2023-06-09T21:23:57.370Z,2.40
2023-06-09T21:26:25.963Z,1.50
2023-06-09T21:28:53.463Z,1.83
2023-06-09T21:31:20.739Z,2.13
2023-06-09T21:33:47.443Z,1.92
2023-06-09T21:36:14.199Z,1.92
2023-06-09T21:38:41.497Z,2.15
2023-06-09T21:41:08.828Z,2.30
2023-06-09T21:43:35.622Z,1.67
2023-06-09T21:46:02.325Z,2.17
2023-06-09T21:48:29.027Z,2.25
2023-06-09T21:50:55.874Z,1.98
2023-06-09T21:53:22.756Z,2.75
2023-06-09T21:55:49.409Z,3.03
2023-06-09T21:58:16.181Z,2.63
2023-06-09T22:00:42.906Z,2.42
2023-06-09T22:03:12.988Z,1.88
2023-06-09T22:05:41.264Z,2.25
2023-06-09T22:08:10.032Z,2.60
2023-06-09T22:10:40.277Z,2.55
2023-06-09T22:13:07.504Z,2.63
2023-06-09T22:15:36.364Z,2.88
2023-06-09T22:18:05.146Z,3.60
2023-06-09T22:20:34.215Z,2.60
2023-06-09T22:23:01.533Z,4.00
2023-06-09T22:25:28.405Z,2.85
2023-06-09T22:27:55.074Z,3.55
2023-06-09T22:30:21.750Z,2.80
2023-06-09T22:32:48.479Z,3.20
2023-06-09T22:35:15.140Z,2.83
2023-06-09T22:37:41.824Z,3.38
2023-06-09T22:40:09.854Z,3.03
2023-06-09T22:42:36.841Z,3.50
2023-06-09T22:45:03.959Z,2.88
2023-06-09T22:47:30.803Z,2.30
2023-06-09T22:50:11.473Z,2.78
2023-06-09T22:52:44.518Z,2.42
2023-06-09T22:55:13.605Z,2.13
2023-06-09T22:57:42.699Z,2.05
2023-06-09T23:00:11.355Z,2.20
2023-06-09T23:02:42.240Z,1.83
2023-06-09T23:05:15.007Z,1.85
2023-06-09T23:07:42.794Z,2.42
2023-06-09T23:10:13.519Z,2.60
2023-06-09T23:12:42.012Z,2.05
2023-06-09T23:15:11.010Z,2.20
2023-06-09T23:17:41.435Z,1.95
2023-06-09T23:20:13.027Z,2.08
2023-06-09T23:22:41.294Z,1.70
2023-06-09T23:25:09.349Z,2.17
2023-06-09T23:27:38.515Z,2.25
2023-06-09T23:30:08.459Z,2.08
2023-06-09T23:32:35.874Z,2.03
2023-06-09T23:35:02.637Z,1.98
2023-06-09T23:37:31.466Z,2.35
2023-06-09T23:39:58.317Z,1.85
2023-06-09T23:42:28.021Z,2.15
2023-06-09T23:44:54.799Z,2.42
2023-06-09T23:47:21.487Z,1.58
2023-06-09T23:49:48.169Z,2.42
2023-06-09T23:52:15.391Z,1.45
2023-06-09T23:54:42.997Z,1.88
2023-06-09T23:57:10.065Z,2.47
2023-06-09T23:59:37.073Z,2.50
